Time;durP1;ratioP1;P1;durP2;ratioP2;P2;SDS_P1;SDS_P2;PMS_P1;PMS_P2;Temp;Humidity;BMP_temperature;BMP_pressure;BME280_temperature;BME280_humidity;BME280_pressure;Samples;Min_cycle;Max_cycle;Signal;HPM_P1;HPM_P2
2022/02/17 00:01:13;;;;;;;0.30;0.30;;;12.90;99.90;;;13.77;100.00;-20195.53;5113697;28;20219;-60
2022/02/17 00:03:41;;;;;;;0.30;0.30;;;12.90;99.90;;;13.75;100.00;-20194.84;5113798;28;20219;-58
2022/02/17 00:06:11;;;;;;;0.30;0.30;;;12.90;99.90;;;13.88;100.00;-20199.13;5113827;28;20207;-57
2022/02/17 00:08:42;;;;;;;0.37;0.30;;;12.90;99.90;;;13.85;100.00;-20198.09;5113799;28;20211;-57
2022/02/17 00:11:13;;;;;;;0.30;0.30;;;12.90;99.90;;;13.91;100.00;-20200.31;5112899;28;20643;-59
2022/02/17 00:13:41;;;;;;;0.30;0.30;;;12.90;99.90;;;13.85;100.00;-20198.28;5113289;28;20676;-58
2022/02/17 00:16:09;;;;;;;0.50;0.50;;;13.00;99.90;;;13.91;100.00;-20200.16;5113264;28;20226;-58
2022/02/17 00:18:37;;;;;;;0.30;0.30;;;13.00;99.90;;;13.98;100.00;-20202.53;5113306;28;20227;-59
2022/02/17 00:21:05;;;;;;;0.30;0.30;;;13.10;99.90;;;13.93;100.00;-20201.00;5113888;28;20203;-58
2022/02/17 00:23:33;;;;;;;0.30;0.30;;;13.10;99.90;;;13.90;100.00;-20199.97;5112848;28;20223;-58
2022/02/17 00:26:02;;;;;;;0.20;0.20;;;13.10;99.90;;;14.10;100.00;-20206.63;5092108;28;20227;-59
2022/02/17 00:28:30;;;;;;;0.30;0.30;;;13.20;99.90;;;14.10;100.00;-20206.81;5099556;28;20262;-59
2022/02/17 00:30:58;;;;;;;0.30;0.30;;;13.30;99.90;;;14.14;100.00;-20208.16;5112955;28;20345;-59
2022/02/17 00:33:26;;;;;;;0.40;0.40;;;13.30;99.90;;;14.22;100.00;-20210.91;5113187;28;20231;-58
2022/02/17 00:35:54;;;;;;;1.07;0.40;;;13.40;99.90;;;14.18;100.00;-20209.53;5103576;28;20282;-58
2022/02/17 00:38:22;;;;;;;0.50;0.50;;;13.40;99.90;;;14.26;100.00;-20212.28;5092328;28;20700;-60
2022/02/17 00:40:50;;;;;;;0.67;0.30;;;13.40;99.90;;;14.29;100.00;-20213.13;5092281;28;20222;-60
2022/02/17 00:43:19;;;;;;;0.47;0.40;;;13.50;99.90;;;14.42;100.00;-20217.75;5092267;28;20254;-58
2022/02/17 00:45:47;;;;;;;1.75;0.40;;;13.50;99.90;;;14.42;100.00;-20217.75;5092039;28;20226;-57
2022/02/17 00:48:15;;;;;;;0.30;0.30;;;13.60;99.90;;;14.33;100.00;-20214.50;5092797;28;20192;-59
2022/02/17 00:50:43;;;;;;;0.40;0.30;;;13.50;99.90;;;14.28;100.00;-20212.78;5092626;28;20303;-58
2022/02/17 00:53:11;;;;;;;0.20;0.20;;;13.50;99.90;;;14.44;100.00;-20218.41;5091960;28;20592;-58
2022/02/17 00:55:39;;;;;;;0.30;0.30;;;13.60;99.90;;;14.42;100.00;-20217.56;5091699;28;20314;-58
2022/02/17 00:58:07;;;;;;;0.47;0.40;;;13.60;99.90;;;14.48;100.00;-20219.78;5095209;28;20308;-58
2022/02/17 01:00:36;;;;;;;0.30;0.30;;;13.70;99.90;;;14.57;100.00;-20222.69;5112060;28;20229;-57
2022/02/17 01:03:04;;;;;;;0.30;0.30;;;13.80;99.90;;;14.58;100.00;-20223.03;5112899;28;20302;-57
2022/02/17 01:05:34;;;;;;;0.20;0.20;;;13.80;99.90;;;14.68;100.00;-20226.28;5112109;28;20247;-60
2022/02/17 01:08:02;;;;;;;0.20;0.20;;;13.90;99.90;;;14.61;100.00;-20224.06;5112055;28;20227;-57
2022/02/17 01:10:31;;;;;;;0.30;0.30;;;13.80;99.90;;;14.53;100.00;-20221.31;5112151;28;20319;-58
2022/02/17 01:12:59;;;;;;;0.27;0.20;;;13.80;99.90;;;14.51;100.00;-20220.81;5111908;28;20729;-57
2022/02/17 01:15:29;;;;;;;1.30;0.30;;;13.80;99.90;;;14.57;100.00;-20222.69;5112334;28;20180;-58
2022/02/17 01:18:00;;;;;;;0.43;0.40;;;13.80;99.90;;;14.53;100.00;-20221.50;5112352;28;20219;-59
2022/02/17 01:20:31;;;;;;;0.40;0.40;;;13.80;99.90;;;14.49;100.00;-20220.13;5111973;28;20261;-56
2022/02/17 01:22:59;;;;;;;0.30;0.30;;;13.80;99.90;;;14.46;100.00;-20219.09;5111732;28;20730;-56
2022/02/17 01:25:27;;;;;;;0.30;0.30;;;13.80;99.90;;;14.40;100.00;-20217.06;5111821;28;20241;-57
2022/02/17 01:27:57;;;;;;;0.40;0.40;;;13.70;99.90;;;14.36;100.00;-20215.50;5111949;28;20223;-57
2022/02/17 01:30:25;;;;;;;0.22;0.20;;;13.60;99.90;;;14.34;100.00;-20215.00;5112114;28;20562;-58
2022/02/17 01:32:53;;;;;;;0.83;0.40;;;13.70;99.90;;;14.46;100.00;-20219.09;5112419;28;20207;-59
2022/02/17 01:35:23;;;;;;;0.30;0.30;;;13.70;99.90;;;14.34;100.00;-20214.84;5111667;28;20311;-55
2022/02/17 01:37:51;;;;;;;0.30;0.30;;;13.60;99.90;;;14.27;100.00;-20212.44;5111793;28;20311;-59
2022/02/17 01:40:19;;;;;;;0.40;0.40;;;13.50;99.90;;;14.19;100.00;-20209.88;5112012;28;20223;-58
2022/02/17 01:42:47;;;;;;;0.30;0.30;;;13.50;99.90;;;14.10;100.00;-20206.81;5111889;28;20219;-58
2022/02/17 01:45:15;;;;;;;0.40;0.40;;;13.40;99.90;;;14.11;100.00;-20206.97;5112043;28;20290;-58
2022/02/17 01:47:45;;;;;;;0.43;0.30;;;13.40;99.90;;;14.14;100.00;-20208.00;5112466;28;20191;-58
2022/02/17 01:50:13;;;;;;;0.30;0.30;;;13.40;99.90;;;14.31;100.00;-20213.97;5112171;28;20233;-58
2022/02/17 01:52:43;;;;;;;0.30;0.25;;;13.50;99.90;;;14.32;100.00;-20214.31;5111672;28;20302;-60
2022/02/17 01:55:11;;;;;;;0.60;0.40;;;13.60;99.90;;;14.37;100.00;-20215.84;5111959;28;20254;-58
2022/02/17 01:57:41;;;;;;;1.13;0.30;;;13.60;99.90;;;14.38;100.00;-20216.19;5111428;28;20227;-59
2022/02/17 02:00:11;;;;;;;0.30;0.30;;;13.60;99.90;;;14.43;100.00;-20218.06;5091885;28;20295;-58
2022/02/17 02:02:42;;;;;;;2.05;0.40;;;13.60;99.90;;;14.40;100.00;-20216.88;5091296;28;20200;-57
2022/02/17 02:05:10;;;;;;;0.82;0.30;;;13.60;99.90;;;14.38;100.00;-20216.19;5091198;28;20247;-59
2022/02/17 02:07:41;;;;;;;0.43;0.40;;;13.60;99.90;;;14.42;100.00;-20217.75;5091090;28;20307;-57
2022/02/17 02:10:11;;;;;;;0.50;0.33;;;13.70;99.90;;;14.38;100.00;-20216.38;5091077;28;20715;-57
2022/02/17 02:12:39;;;;;;;0.67;0.40;;;13.70;99.90;;;14.37;100.00;-20216.03;5090892;28;20224;-58
2022/02/17 02:15:08;;;;;;;0.43;0.40;;;13.60;99.90;;;14.38;100.00;-20216.19;5091672;28;20209;-59
2022/02/17 02:17:38;;;;;;;0.47;0.38;;;13.60;99.90;;;14.25;100.00;-20211.75;5103240;28;20314;-58
2022/02/17 02:20:08;;;;;;;0.45;0.40;;;13.50;99.90;;;14.37;100.00;-20216.03;5111362;27;20250;-58
2022/02/17 02:22:38;;;;;;;1.50;0.30;;;13.60;99.90;;;14.33;100.00;-20214.66;5111268;27;20318;-59
2022/02/17 02:25:07;;;;;;;0.40;0.30;;;13.50;99.90;;;14.22;100.00;-20210.91;5111202;28;20230;-58
2022/02/17 02:27:35;;;;;;;0.80;0.40;;;13.50;99.90;;;14.24;100.00;-20211.59;5110994;28;20302;-58
2022/02/17 02:30:05;;;;;;;0.40;0.40;;;13.40;99.90;;;14.07;100.00;-20205.78;5111635;28;20290;-57
2022/02/17 02:32:34;;;;;;;1.17;0.40;;;13.30;99.90;;;14.09;100.00;-20206.28;5110861;28;20704;-57
2022/02/17 02:35:02;;;;;;;0.33;0.30;;;13.20;99.90;;;14.15;100.00;-20208.50;5109851;28;20222;-59
2022/02/17 02:37:30;;;;;;;0.30;0.30;;;13.30;99.90;;;14.26;100.00;-20212.28;5110658;28;20229;-59
2022/02/17 02:39:59;;;;;;;1.33;0.50;;;13.30;99.90;;;14.31;100.00;-20213.81;5110523;28;20231;-56
2022/02/17 02:42:27;;;;;;;0.30;0.30;;;13.30;99.90;;;14.36;100.00;-20215.50;5110416;28;20298;-59
2022/02/17 02:44:55;;;;;;;1.00;0.40;;;13.40;99.90;;;14.27;100.00;-20212.63;5111282;28;20224;-59
2022/02/17 02:47:23;;;;;;;0.90;0.50;;;13.40;99.90;;;14.17;100.00;-20209.19;5110605;28;20223;-59
2022/02/17 02:49:53;;;;;;;0.80;0.50;;;13.30;99.90;;;14.02;100.00;-20203.91;5110787;28;20245;-59
2022/02/17 02:52:21;;;;;;;1.45;0.50;;;13.20;99.90;;;13.73;97.17;-20194.19;5110627;28;20654;-57
2022/02/17 02:54:49;;;;;;;1.30;0.53;;;13.00;99.90;;;13.39;97.44;-20182.75;5110422;28;20225;-58
2022/02/17 02:57:18;;;;;;;1.83;0.70;;;12.60;99.90;;;13.11;98.63;-20173.19;5110578;28;20200;-58
2022/02/17 02:59:46;;;;;;;0.60;0.60;;;12.40;99.90;;;13.13;99.83;-20173.69;5111027;28;20314;-57
2022/02/17 03:02:14;;;;;;;2.17;0.80;;;12.20;99.90;;;12.80;100.00;-20162.59;5110128;27;20784;-58
2022/02/17 03:04:42;;;;;;;0.83;0.60;;;12.10;99.90;;;12.27;100.00;-20144.50;5110316;27;20789;-61
2022/02/17 03:07:10;;;;;;;1.57;0.53;;;11.70;99.90;;;11.89;100.00;-20131.69;5110703;27;20226;-58
2022/02/17 03:09:38;;;;;;;3.83;0.60;;;11.40;99.90;;;11.60;100.00;-20121.78;5110421;27;20645;-59
2022/02/17 03:12:07;;;;;;;1.83;0.70;;;11.10;99.90;;;11.30;100.00;-20111.53;5110918;28;20191;-59
2022/02/17 03:14:36;;;;;;;1.73;0.80;;;10.90;99.90;;;10.92;100.00;-20098.72;5109696;27;20263;-59
2022/02/17 03:17:05;;;;;;;1.67;0.80;;;10.50;99.90;;;10.70;100.00;-20091.22;5110023;27;20302;-58
2022/02/17 03:19:33;;;;;;;0.93;0.70;;;10.20;99.90;;;10.57;100.00;-20086.59;5110241;28;20231;-59
2022/02/17 03:22:02;;;;;;;1.03;0.60;;;10.00;99.90;;;10.48;100.00;-20083.53;5110357;27;20227;-59
2022/02/17 03:24:30;;;;;;;1.67;0.80;;;9.80;99.90;;;10.37;100.00;-20079.75;5110403;28;20188;-59
2022/02/17 03:26:58;;;;;;;2.70;0.70;;;9.70;99.90;;;10.28;100.00;-20076.88;5110931;28;20294;-58
2022/02/17 03:29:25;;;;;;;1.57;1.10;;;9.60;99.90;;;10.36;100.00;-20079.41;5110319;28;20222;-59
2022/02/17 03:31:55;;;;;;;1.67;0.93;;;9.60;99.90;;;10.36;100.00;-20079.59;5110511;28;20223;-58
2022/02/17 03:34:24;;;;;;;3.87;1.10;;;9.60;99.90;;;10.20;100.00;-20074.13;5110296;28;20313;-59
2022/02/17 03:36:52;;;;;;;1.90;0.87;;;9.50;99.90;;;10.15;100.00;-20072.41;5110326;28;20246;-57
2022/02/17 03:39:21;;;;;;;1.63;0.87;;;9.40;99.90;;;10.09;100.00;-20070.19;5109850;28;20276;-58
2022/02/17 03:41:49;;;;;;;1.47;0.90;;;9.30;99.90;;;10.01;100.00;-20067.63;5110456;28;20293;-57
2022/02/17 03:44:17;;;;;;;1.50;0.70;;;9.20;99.90;;;9.94;100.00;-20065.25;5110058;28;20239;-58
2022/02/17 03:46:45;;;;;;;2.27;0.80;;;9.20;99.90;;;9.91;100.00;-20064.22;5113708;28;20223;-57
2022/02/17 03:49:15;;;;;;;2.00;0.70;;;9.10;99.90;;;9.76;100.00;-20059.25;5113597;28;20265;-57
2022/02/17 03:51:43;;;;;;;2.53;0.80;;;9.10;99.90;;;9.82;100.00;-20061.31;5114111;28;20223;-55
2022/02/17 03:54:11;;;;;;;3.73;0.73;;;9.00;99.90;;;9.84;100.00;-20061.81;5114375;28;20199;-58
2022/02/17 03:56:39;;;;;;;1.13;0.70;;;9.00;99.90;;;9.70;100.00;-20057.03;5113600;28;20231;-58
2022/02/17 03:59:08;;;;;;;2.63;0.83;;;9.00;99.90;;;9.81;100.00;-20060.97;5113373;28;20310;-58
2022/02/17 04:01:38;;;;;;;2.20;0.83;;;8.90;99.90;;;9.69;100.00;-20056.88;5113413;28;20754;-58
2022/02/17 04:04:09;;;;;;;0.77;0.57;;;8.90;99.90;;;9.64;100.00;-20055.00;5113332;28;20771;-57
2022/02/17 04:06:39;;;;;;;3.30;0.70;;;8.90;99.90;;;9.59;100.00;-20053.44;5113631;28;20313;-58
2022/02/17 04:09:08;;;;;;;2.33;0.70;;;8.80;99.90;;;9.64;100.00;-20055.16;5113511;28;20199;-58
2022/02/17 04:11:36;;;;;;;1.63;0.70;;;8.80;99.90;;;9.59;100.00;-20053.44;5113150;28;20227;-58
2022/02/17 04:14:04;;;;;;;1.07;0.50;;;8.80;99.90;;;9.52;100.00;-20050.91;5113329;28;20322;-58
2022/02/17 04:16:32;;;;;;;1.43;0.50;;;8.70;99.90;;;9.47;100.00;-20049.34;5113153;28;20284;-57
2022/02/17 04:19:02;;;;;;;0.83;0.43;;;8.70;99.90;;;9.36;100.00;-20045.41;5113258;28;20284;-56
2022/02/17 04:21:30;;;;;;;0.50;0.50;;;8.60;99.90;;;9.35;100.00;-20045.09;5113363;28;20536;-57
2022/02/17 04:24:00;;;;;;;2.20;0.50;;;8.60;99.90;;;9.22;100.00;-20040.81;5113402;28;20326;-56
2022/02/17 04:26:28;;;;;;;2.80;0.43;;;8.50;99.90;;;9.02;100.00;-20033.97;5113025;28;20310;-57
2022/02/17 04:28:57;;;;;;;1.60;0.40;;;8.40;99.90;;;8.98;100.00;-20032.44;5112872;28;20255;-57
2022/02/17 04:31:27;;;;;;;1.07;0.50;;;8.30;99.90;;;8.90;100.00;-20029.88;5111708;28;20227;-56
2022/02/17 04:33:55;;;;;;;1.63;0.60;;;8.20;99.90;;;8.71;100.00;-20023.22;5112787;28;20759;-58
2022/02/17 04:36:23;;;;;;;0.93;0.40;;;8.10;99.90;;;8.73;100.00;-20024.06;5112668;28;20286;-57
2022/02/17 04:38:51;;;;;;;3.17;0.70;;;8.10;99.90;;;8.79;100.00;-20026.13;5113407;28;20703;-57
2022/02/17 04:44:07;;;;;;;1.40;0.50;;;8.00;99.90;;;8.62;100.00;-20020.31;5112747;28;20220;-57
2022/02/17 04:46:35;;;;;;;1.07;0.53;;;8.00;99.90;;;8.77;100.00;-20025.25;5112102;28;20719;-57
2022/02/17 04:49:03;;;;;;;2.93;0.60;;;8.00;99.90;;;8.75;100.00;-20024.75;5112584;28;20262;-59
2022/02/17 04:51:31;;;;;;;0.70;0.60;;;8.00;99.90;;;8.73;100.00;-20023.91;5112455;28;20362;-57
2022/02/17 04:53:59;;;;;;;0.43;0.43;;;8.00;99.90;;;8.83;100.00;-20027.47;5112802;28;20294;-59
2022/02/17 04:56:33;;;;;;;0.90;0.47;;;8.10;99.90;;;8.88;100.00;-20029.19;5111053;28;20219;-58
2022/02/17 04:59:01;;;;;;;1.40;0.60;;;8.20;99.90;;;8.90;100.00;-20029.72;5112190;28;20711;-57
2022/02/17 05:01:29;;;;;;;2.77;0.60;;;8.20;99.90;;;8.82;100.00;-20026.97;5112115;28;20310;-58
2022/02/17 05:03:57;;;;;;;0.90;0.60;;;8.20;99.90;;;8.88;100.00;-20029.19;5112018;28;20250;-58
2022/02/17 05:06:26;;;;;;;1.53;0.63;;;8.30;99.90;;;8.88;100.00;-20029.19;5111753;28;20211;-59
2022/02/17 05:08:53;;;;;;;1.23;0.80;;;8.20;99.90;;;9.04;100.00;-20034.66;5112940;28;20203;-59
2022/02/17 05:11:22;;;;;;;1.43;0.60;;;8.20;99.90;;;8.95;100.00;-20031.59;5111706;28;20738;-58
2022/02/17 05:13:51;;;;;;;2.63;0.90;;;8.30;99.90;;;8.90;100.00;-20029.88;5110687;28;20223;-59
2022/02/17 05:16:19;;;;;;;0.87;0.57;;;8.30;99.90;;;8.90;100.00;-20029.88;5111467;28;20720;-58
2022/02/17 05:18:48;;;;;;;1.63;0.70;;;8.20;99.90;;;8.99;100.00;-20032.97;5111919;28;20227;-59
2022/02/17 05:21:15;;;;;;;1.43;0.63;;;8.30;99.90;;;9.18;100.00;-20039.44;5111539;28;20720;-57
2022/02/17 05:23:43;;;;;;;0.97;0.60;;;8.30;99.90;;;9.11;100.00;-20036.88;5110760;28;20738;-58
2022/02/17 05:26:12;;;;;;;3.30;0.60;;;8.30;99.90;;;8.91;100.00;-20030.06;5095040;28;20223;-59
2022/02/17 05:28:40;;;;;;;1.33;0.57;;;8.30;99.90;;;9.02;100.00;-20033.81;5099840;28;20276;-57
2022/02/17 05:31:10;;;;;;;1.63;0.80;;;8.30;99.90;;;8.97;100.00;-20032.28;5111711;28;20311;-58
2022/02/17 05:33:39;;;;;;;0.90;0.73;;;8.30;99.90;;;8.99;100.00;-20032.97;5111984;28;20219;-58
2022/02/17 05:36:07;;;;;;;1.33;0.50;;;8.20;99.90;;;9.03;100.00;-20034.31;5112013;28;20984;-59
2022/02/17 05:38:35;;;;;;;1.20;0.50;;;8.20;99.90;;;9.07;100.00;-20035.50;5111665;28;20254;-59
2022/02/17 05:41:03;;;;;;;3.90;0.80;;;8.20;99.90;;;9.09;100.00;-20036.19;5111523;28;20230;-58
2022/02/17 05:43:31;;;;;;;2.27;0.77;;;8.20;99.90;;;9.01;100.00;-20033.47;5111825;28;20317;-59
2022/02/17 05:45:59;;;;;;;2.13;0.80;;;8.20;99.90;;;9.09;100.00;-20036.19;5111587;28;20591;-59
2022/02/17 05:48:28;;;;;;;1.37;1.07;;;8.20;99.90;;;9.08;100.00;-20035.84;5111398;28;20200;-58
2022/02/17 05:50:56;;;;;;;1.43;0.80;;;8.20;99.90;;;9.13;100.00;-20037.72;5111798;28;20623;-58
2022/02/17 05:53:24;;;;;;;2.00;0.90;;;8.20;99.90;;;9.14;100.00;-20038.06;5111352;28;20337;-58
2022/02/17 05:55:52;;;;;;;1.57;0.80;;;8.20;99.90;;;8.95;100.00;-20031.59;5111517;28;20233;-58
2022/02/17 05:58:20;;;;;;;3.93;1.33;;;8.20;99.90;;;9.11;100.00;-20036.88;5111369;28;20306;-56
2022/02/17 06:00:50;;;;;;;3.40;0.90;;;8.30;99.90;;;9.19;100.00;-20039.78;5111157;27;20676;-58
2022/02/17 06:03:18;;;;;;;3.67;1.03;;;8.40;99.90;;;9.24;100.00;-20041.31;5111084;27;20626;-57
2022/02/17 06:05:47;;;;;;;2.67;0.80;;;8.40;99.90;;;9.05;100.00;-20034.84;5111766;28;20200;-56
2022/02/17 06:08:15;;;;;;;3.03;0.80;;;8.40;99.90;;;8.87;100.00;-20028.69;5111076;27;20319;-58
2022/02/17 06:10:43;;;;;;;2.73;1.00;;;8.20;99.90;;;8.78;100.00;-20025.63;5110336;28;20219;-58
2022/02/17 06:13:11;;;;;;;2.63;0.77;;;8.20;99.90;;;8.51;100.00;-20016.72;5109524;28;20264;-58
2022/02/17 06:15:39;;;;;;;1.43;0.80;;;8.00;99.90;;;8.33;100.00;-20010.56;5110970;28;20223;-56
2022/02/17 06:18:08;;;;;;;2.23;0.70;;;7.80;99.90;;;8.31;100.00;-20009.72;5111561;28;20290;-58
2022/02/17 06:20:36;;;;;;;3.10;0.70;;;7.70;99.90;;;8.26;100.00;-20008.00;5110840;28;20230;-58
2022/02/17 06:23:05;;;;;;;1.73;0.73;;;7.60;99.90;;;8.23;100.00;-20007.16;5111180;28;20223;-58
2022/02/17 06:25:33;;;;;;;3.03;1.00;;;7.60;99.90;;;8.12;100.00;-20003.22;5093708;28;20255;-59
2022/02/17 06:28:03;;;;;;;1.93;1.10;;;7.50;99.90;;;8.09;100.00;-20002.38;5093256;28;20262;-57
2022/02/17 06:30:31;;;;;;;1.40;0.90;;;7.40;99.90;;;8.16;100.00;-20004.75;5111321;28;20290;-59
2022/02/17 06:32:59;;;;;;;4.43;0.80;;;7.40;99.90;;;8.13;100.00;-20003.56;5110889;28;20623;-58
2022/02/17 06:35:33;;;;;;;2.90;1.10;;;7.40;99.90;;;8.23;100.00;-20007.16;5110574;28;20230;-58
2022/02/17 06:38:02;;;;;;;2.50;1.20;;;7.50;99.90;;;8.32;100.00;-20010.06;5110742;28;20626;-59
2022/02/17 06:40:34;;;;;;;1.47;0.87;;;7.50;99.90;;;8.30;100.00;-20009.38;5110768;28;20249;-60
2022/02/17 06:43:07;;;;;;;3.13;0.70;;;7.60;99.90;;;8.25;100.00;-20007.84;5110628;28;20314;-58
2022/02/17 06:45:37;;;;;;;2.77;0.87;;;7.60;99.90;;;8.31;100.00;-20009.72;5111075;28;20219;-59
2022/02/17 06:48:07;;;;;;;1.20;0.70;;;7.60;99.90;;;8.27;100.00;-20008.34;5111188;28;20282;-59
2022/02/17 06:50:36;;;;;;;3.20;0.70;;;7.60;99.90;;;8.25;100.00;-20007.84;5110573;28;20223;-58
2022/02/17 06:53:04;;;;;;;2.33;0.70;;;7.60;99.90;;;8.23;100.00;-20007.16;5110491;28;20364;-57
2022/02/17 06:55:35;;;;;;;2.77;0.93;;;7.60;99.90;;;8.09;100.00;-20002.19;5110774;28;20254;-59
2022/02/17 06:58:05;;;;;;;1.73;0.60;;;7.50;99.90;;;8.23;100.00;-20006.97;5110099;28;20250;-59
2022/02/17 07:00:33;;;;;;;1.67;0.60;;;7.50;99.90;;;8.30;100.00;-20009.53;5110401;28;20273;-59
2022/02/17 07:03:04;;;;;;;1.40;1.03;;;7.50;99.90;;;8.38;100.00;-20012.09;5111203;28;20281;-57
2022/02/17 07:05:32;;;;;;;2.47;0.80;;;7.60;99.90;;;8.32;100.00;-20010.22;5109415;28;20269;-58
2022/02/17 07:08:00;;;;;;;2.00;0.77;;;7.60;99.90;;;8.60;100.00;-20019.63;5110382;28;20227;-60
2022/02/17 07:13:15;;;;;;;4.10;0.93;;;7.80;99.90;;;8.66;100.00;-20021.50;5110405;28;20257;-60
2022/02/17 07:15:45;;;;;;;2.20;1.00;;;7.80;99.90;;;8.71;100.00;-20023.22;5110652;28;20227;-56
2022/02/17 07:18:13;;;;;;;1.10;0.87;;;7.90;99.90;;;8.72;100.00;-20023.56;5110995;28;20202;-58
2022/02/17 07:20:44;;;;;;;2.30;1.00;;;7.90;99.90;;;8.67;100.00;-20022.03;5112958;28;20703;-57
2022/02/17 07:23:14;;;;;;;1.83;0.70;;;7.90;99.90;;;8.65;100.00;-20021.34;5114498;28;20345;-60
2022/02/17 07:25:43;;;;;;;1.87;0.73;;;7.90;99.90;;;8.64;100.00;-20021.00;5114393;28;20226;-58
2022/02/17 07:28:12;;;;;;;2.07;1.07;;;7.90;99.90;;;8.71;100.00;-20023.38;5114236;28;20219;-57
2022/02/17 07:30:44;;;;;;;2.53;0.80;;;7.90;99.90;;;8.87;100.00;-20028.84;5114641;28;20701;-57
2022/02/17 07:33:13;;;;;;;3.23;0.60;;;8.00;99.90;;;9.01;100.00;-20033.63;5117270;28;20194;-58
2022/02/17 07:35:41;;;;;;;2.30;0.70;;;8.10;99.90;;;9.19;100.00;-20039.78;5117467;28;20295;-58
2022/02/17 07:38:29;;;;;;;1.10;0.70;;;8.20;99.90;;;9.19;100.00;-20039.78;5108482;28;20711;-58
2022/02/17 07:40:57;;;;;;;2.37;0.90;;;8.30;99.90;;;9.13;100.00;-20037.72;5111937;28;20647;-58
2022/02/17 07:43:25;;;;;;;2.40;1.10;;;8.30;99.90;;;9.05;100.00;-20034.84;5114008;28;20306;-56
2022/02/17 07:45:54;;;;;;;3.27;0.80;;;8.20;99.90;;;9.10;100.00;-20036.72;5114015;28;20227;-58
2022/02/17 07:48:22;;;;;;;1.90;0.60;;;8.20;99.90;;;9.06;100.00;-20035.34;5114154;28;20282;-58
2022/02/17 07:50:50;;;;;;;1.40;0.60;;;8.20;99.90;;;9.00;100.00;-20033.28;5114481;28;20560;-58
2022/02/17 07:53:18;;;;;;;1.83;0.70;;;8.10;99.90;;;8.99;100.00;-20032.97;5113788;28;20688;-59
2022/02/17 07:55:46;;;;;;;2.60;0.80;;;8.10;99.90;;;8.94;100.00;-20031.06;5113583;27;20246;-59
2022/02/17 07:58:17;;;;;;;1.57;0.50;;;8.10;99.90;;;9.00;100.00;-20033.13;5113654;27;20338;-58
2022/02/17 08:00:45;;;;;;;1.53;0.70;;;8.10;99.90;;;8.99;100.00;-20032.97;5100723;28;20224;-57
2022/02/17 08:03:15;;;;;;;1.03;0.70;;;8.10;99.90;;;8.90;100.00;-20029.88;5110315;28;20602;-58
2022/02/17 08:05:45;;;;;;;2.77;0.70;;;8.00;99.90;;;8.93;100.00;-20030.72;5114198;28;20651;-58
2022/02/17 08:08:13;;;;;;;1.70;0.77;;;8.00;99.90;;;8.97;100.00;-20032.09;5111469;28;20211;-59
2022/02/17 08:10:41;;;;;;;1.00;0.80;;;8.00;99.90;;;8.85;100.00;-20028.00;5113681;27;20306;-57
2022/02/17 08:13:10;;;;;;;3.83;1.00;;;7.90;99.90;;;8.78;100.00;-20025.78;5109981;28;20233;-56
2022/02/17 08:15:40;;;;;;;4.27;1.20;;;7.90;99.90;;;8.61;100.00;-20019.97;5109510;28;20222;-59
2022/02/17 08:18:08;;;;;;;2.57;1.00;;;7.80;99.90;;;8.58;100.00;-20019.13;5113335;28;20286;-58
2022/02/17 08:20:38;;;;;;;3.10;1.10;;;7.80;99.90;;;8.66;100.00;-20021.50;5111298;28;20223;-57
2022/02/17 08:23:06;;;;;;;3.77;1.00;;;7.80;99.90;;;8.70;100.00;-20022.88;5111253;27;20223;-56
2022/02/17 08:25:34;;;;;;;4.80;1.10;;;7.80;99.90;;;8.82;100.00;-20026.97;5111540;28;20226;-57
2022/02/17 08:28:03;;;;;;;4.00;1.10;;;7.90;99.90;;;8.99;100.00;-20032.97;5111416;28;20322;-57
2022/02/17 08:30:34;;;;;;;4.67;1.20;;;8.00;99.90;;;8.97;100.00;-20032.28;5107321;28;20203;-56
2022/02/17 08:33:04;;;;;;;3.60;1.10;;;8.00;99.90;;;8.93;100.00;-20030.72;5113154;28;20719;-60
2022/02/17 08:35:32;;;;;;;4.30;1.30;;;8.10;99.90;;;9.05;100.00;-20035.00;5112869;28;20569;-56
2022/02/17 08:38:07;;;;;;;3.83;1.40;;;8.20;99.90;;;8.97;100.00;-20032.09;5112578;28;20219;-60
2022/02/17 08:40:35;;;;;;;4.10;1.40;;;8.20;99.90;;;9.02;100.00;-20033.81;5112958;28;20309;-60
2022/02/17 08:43:09;;;;;;;4.40;1.33;;;8.20;99.90;;;8.98;100.00;-20032.59;5112944;28;20310;-59
2022/02/17 08:45:39;;;;;;;3.17;1.30;;;8.20;99.90;;;9.11;100.00;-20037.06;5112824;28;20302;-59
2022/02/17 08:48:08;;;;;;;5.73;1.73;;;8.30;99.90;;;9.63;100.00;-20054.81;5109812;28;20279;-56
2022/02/17 08:50:39;;;;;;;4.30;1.60;;;8.50;99.90;;;9.79;100.00;-20060.28;5112015;28;20399;-57
2022/02/17 08:53:08;;;;;;;4.10;1.37;;;8.70;99.90;;;9.81;100.00;-20060.97;5110483;28;20246;-57
2022/02/17 08:55:52;;;;;;;3.70;1.20;;;8.80;99.90;;;9.69;100.00;-20056.69;5098363;28;20781;-55
2022/02/17 08:58:20;;;;;;;4.77;1.50;;;8.80;99.90;;;9.60;100.00;-20053.63;5110826;27;20285;-58
2022/02/17 09:00:48;;;;;;;3.57;1.20;;;8.80;99.90;;;9.64;100.00;-20055.00;5111832;27;20577;-58
2022/02/17 09:03:17;;;;;;;3.43;1.00;;;8.70;99.90;;;9.73;100.00;-20058.06;5125378;27;20214;-58
2022/02/17 09:05:45;;;;;;;3.13;1.00;;;8.80;99.90;;;9.69;100.00;-20056.69;5124793;27;20191;-56
2022/02/17 09:08:34;;;;;;;3.60;0.87;;;8.80;99.90;;;9.65;99.58;-20055.34;5112570;28;20622;-58
2022/02/17 09:11:03;;;;;;;3.20;1.37;;;8.80;99.90;;;9.57;97.59;-20052.59;5112825;28;20246;-58
2022/02/17 09:13:31;;;;;;;1.90;0.90;;;8.80;99.90;;;9.55;95.67;-20051.91;5112769;28;20310;-57
2022/02/17 09:15:59;;;;;;;4.40;0.87;;;8.70;99.90;;;9.79;93.55;-20060.13;5112373;28;20425;-56
2022/02/17 09:18:27;;;;;;;2.10;0.83;;;8.80;99.90;;;10.05;92.42;-20068.81;5115027;27;20255;-58
2022/02/17 09:20:55;;;;;;;3.07;1.00;;;8.90;99.90;;;10.11;90.26;-20071.06;5112642;28;20196;-57
2022/02/17 09:23:24;;;;;;;2.97;0.97;;;9.00;99.90;;;10.30;90.67;-20077.38;5111683;28;20231;-55
2022/02/17 09:25:53;;;;;;;2.27;1.10;;;9.10;99.90;;;10.10;91.73;-20070.53;5112800;27;20652;-56
2022/02/17 09:28:22;;;;;;;4.00;1.10;;;9.10;99.90;;;9.99;88.91;-20066.78;5117092;27;20215;-58
2022/02/17 09:30:50;;;;;;;3.00;0.90;;;9.00;99.90;;;10.00;88.33;-20067.13;5115261;27;20594;-57
2022/02/17 09:33:18;;;;;;;2.43;0.80;;;9.00;99.90;;;10.02;88.94;-20067.81;5111669;27;20210;-58
2022/02/17 09:35:46;;;;;;;3.23;1.20;;;9.10;99.90;;;9.97;91.00;-20066.25;5117272;27;20618;-58
2022/02/17 09:38:15;;;;;;;3.13;0.83;;;9.00;99.90;;;9.98;92.16;-20066.59;5121512;27;20656;-57
2022/02/17 09:40:45;;;;;;;2.70;0.90;;;9.00;99.90;;;10.05;92.81;-20069.00;5112735;27;20223;-58
2022/02/17 09:43:15;;;;;;;1.57;0.60;;;9.00;99.90;;;9.99;92.98;-20066.78;5111063;28;20233;-57
2022/02/17 09:45:46;;;;;;;2.57;0.63;;;9.00;99.90;;;9.90;92.71;-20063.88;5095401;28;20221;-56
2022/02/17 09:48:17;;;;;;;1.07;0.53;;;9.00;99.90;;;9.73;97.71;-20058.06;5109715;28;20211;-58
2022/02/17 09:50:47;;;;;;;2.10;1.07;;;8.90;99.90;;;9.64;100.00;-20055.16;5102828;27;20300;-56
2022/02/17 09:53:15;;;;;;;1.73;0.60;;;8.80;99.90;;;9.45;100.00;-20048.50;5108809;28;20303;-57
2022/02/17 09:55:44;;;;;;;1.37;0.70;;;8.70;99.90;;;9.30;100.00;-20043.53;5097321;27;20215;-58
2022/02/17 09:58:15;;;;;;;2.03;1.07;;;8.50;99.90;;;9.06;100.00;-20035.19;5111322;28;20291;-58
2022/02/17 10:00:45;;;;;;;1.23;0.70;;;8.30;99.90;;;8.90;100.00;-20029.72;5098984;28;20311;-59
2022/02/17 10:03:21;;;;;;;3.27;1.03;;;8.20;99.90;;;8.77;100.00;-20025.44;5109744;28;20215;-57
2022/02/17 10:06:07;;;;;;;2.43;0.93;;;8.10;99.90;;;8.73;100.00;-20024.06;5095856;28;20229;-57
2022/02/17 10:08:36;;;;;;;3.13;1.13;;;8.00;99.90;;;8.71;100.00;-20023.38;5110894;28;20254;-59
2022/02/17 10:11:05;;;;;;;3.77;1.20;;;7.90;99.90;;;8.72;100.00;-20023.72;5111963;27;20314;-58
2022/02/17 10:13:36;;;;;;;3.70;1.00;;;7.90;99.90;;;9.03;100.00;-20034.31;5115327;27;20313;-57
2022/02/17 10:16:04;;;;;;;2.87;0.90;;;8.00;99.90;;;9.42;100.00;-20047.47;5108768;27;20229;-58
2022/02/17 10:18:41;;;;;;;3.30;1.40;;;8.30;99.90;;;9.75;100.00;-20058.91;5110283;28;20282;-57
2022/02/17 10:21:13;;;;;;;6.23;1.40;;;8.60;99.90;;;10.05;100.00;-20068.81;5111409;28;20278;-57
2022/02/17 10:23:44;;;;;;;3.87;1.10;;;8.80;99.90;;;10.20;98.52;-20073.97;5111101;28;20306;-57
2022/02/17 10:26:16;;;;;;;2.73;0.90;;;9.00;99.90;;;10.28;96.72;-20076.69;5110743;28;20243;-58
2022/02/17 10:28:54;;;;;;;3.40;1.17;;;9.20;99.90;;;10.31;95.83;-20077.88;5110815;28;20886;-59